sensor_id;sensor_type;location;lat;lon;timestamp;pressure;altitude;pressure_sealevel;temperature;humidity
69772;BME280;57046;45.988;18.664;2023-02-18T00:01:13;101261.78;;;12.61;58.56
69772;BME280;57046;45.988;18.664;2023-02-18T00:03:39;101254.72;;;12.51;58.58
69772;BME280;57046;45.988;18.664;2023-02-18T00:08:37;101237.13;;;12.40;58.66
69772;BME280;57046;45.988;18.664;2023-02-18T00:11:04;101237.31;;;12.44;58.70
69772;BME280;57046;45.988;18.664;2023-02-18T00:13:30;101250.41;;;12.50;58.55
69772;BME280;57046;45.988;18.664;2023-02-18T00:16:00;101248.94;;;12.44;59.36
69772;BME280;57046;45.988;18.664;2023-02-18T00:18:25;101245.09;;;12.37;59.15
69772;BME280;57046;45.988;18.664;2023-02-18T00:20:51;101245.53;;;12.30;59.64
69772;BME280;57046;45.988;18.664;2023-02-18T00:23:16;101238.97;;;12.22;59.64
69772;BME280;57046;45.988;18.664;2023-02-18T00:25:41;101241.53;;;12.28;59.40
69772;BME280;57046;45.988;18.664;2023-02-18T00:28:07;101246.34;;;12.31;59.46
69772;BME280;57046;45.988;18.664;2023-02-18T00:30:32;101234.53;;;12.27;59.88
69772;BME280;57046;45.988;18.664;2023-02-18T00:32:57;101238.78;;;12.19;60.02
69772;BME280;57046;45.988;18.664;2023-02-18T00:35:23;101240.16;;;12.08;60.46
69772;BME280;57046;45.988;18.664;2023-02-18T00:37:51;101230.00;;;12.13;60.14
69772;BME280;57046;45.988;18.664;2023-02-18T00:40:16;101231.00;;;12.26;59.75
69772;BME280;57046;45.988;18.664;2023-02-18T00:42:41;101246.25;;;12.13;59.95
69772;BME280;57046;45.988;18.664;2023-02-18T00:45:07;101224.06;;;12.11;60.14
69772;BME280;57046;45.988;18.664;2023-02-18T00:47:32;101223.41;;;12.06;60.26
69772;BME280;57046;45.988;18.664;2023-02-18T00:49:58;101222.34;;;12.15;59.70
69772;BME280;57046;45.988;18.664;2023-02-18T00:52:23;101224.88;;;12.12;60.11
69772;BME280;57046;45.988;18.664;2023-02-18T00:54:48;101230.66;;;12.19;59.79
69772;BME280;57046;45.988;18.664;2023-02-18T00:57:14;101231.59;;;12.14;59.38
69772;BME280;57046;45.988;18.664;2023-02-18T00:59:39;101225.50;;;12.09;59.57
69772;BME280;57046;45.988;18.664;2023-02-18T01:02:04;101233.72;;;12.26;59.48
69772;BME280;57046;45.988;18.664;2023-02-18T01:04:30;101237.69;;;12.20;59.59
69772;BME280;57046;45.988;18.664;2023-02-18T01:06:55;101240.38;;;12.20;59.81
69772;BME280;57046;45.988;18.664;2023-02-18T01:09:20;101239.22;;;12.12;59.95
69772;BME280;57046;45.988;18.664;2023-02-18T01:11:46;101237.31;;;12.13;60.19
69772;BME280;57046;45.988;18.664;2023-02-18T01:14:11;101224.50;;;12.05;60.14
69772;BME280;57046;45.988;18.664;2023-02-18T01:16:37;101238.66;;;11.93;60.60
69772;BME280;57046;45.988;18.664;2023-02-18T01:19:02;101231.34;;;12.02;60.61
69772;BME280;57046;45.988;18.664;2023-02-18T01:21:27;101232.91;;;11.95;60.70
69772;BME280;57046;45.988;18.664;2023-02-18T01:23:53;101208.22;;;11.74;61.29
69772;BME280;57046;45.988;18.664;2023-02-18T01:26:18;101222.66;;;11.83;61.33
69772;BME280;57046;45.988;18.664;2023-02-18T01:28:43;101212.63;;;11.84;61.35
69772;BME280;57046;45.988;18.664;2023-02-18T01:31:11;101227.56;;;11.81;61.29
69772;BME280;57046;45.988;18.664;2023-02-18T01:33:37;101210.25;;;11.68;61.32
69772;BME280;57046;45.988;18.664;2023-02-18T01:36:04;101220.78;;;11.70;61.59
69772;BME280;57046;45.988;18.664;2023-02-18T01:38:29;101205.22;;;11.76;61.23
69772;BME280;57046;45.988;18.664;2023-02-18T01:40:55;101196.31;;;11.75;61.61
69772;BME280;57046;45.988;18.664;2023-02-18T01:43:21;101217.00;;;11.57;62.25
69772;BME280;57046;45.988;18.664;2023-02-18T01:45:59;101207.31;;;11.56;61.93
69772;BME280;57046;45.988;18.664;2023-02-18T01:48:31;101217.63;;;11.54;62.21
69772;BME280;57046;45.988;18.664;2023-02-18T01:53:35;101186.69;;;11.47;62.02
69772;BME280;57046;45.988;18.664;2023-02-18T01:56:03;101182.44;;;11.54;61.93
69772;BME280;57046;45.988;18.664;2023-02-18T01:58:29;101180.81;;;11.53;62.72
69772;BME280;57046;45.988;18.664;2023-02-18T02:00:55;101185.38;;;11.44;62.20
69772;BME280;57046;45.988;18.664;2023-02-18T02:03:20;101191.38;;;11.55;62.20
69772;BME280;57046;45.988;18.664;2023-02-18T02:05:46;101181.88;;;11.44;62.16
69772;BME280;57046;45.988;18.664;2023-02-18T02:08:11;101180.97;;;11.48;62.39
69772;BME280;57046;45.988;18.664;2023-02-18T02:10:57;101188.03;;;11.36;62.56
69772;BME280;57046;45.988;18.664;2023-02-18T02:13:46;101170.19;;;11.35;62.58
69772;BME280;57046;45.988;18.664;2023-02-18T02:22:36;101151.31;;;11.21;62.83
69772;BME280;57046;45.988;18.664;2023-02-18T02:30:51;101145.63;;;11.22;62.76
69772;BME280;57046;45.988;18.664;2023-02-18T02:39:13;101151.03;;;11.22;62.73
69772;BME280;57046;45.988;18.664;2023-02-18T02:41:58;101138.09;;;11.19;62.67
69772;BME280;57046;45.988;18.664;2023-02-18T02:44:37;101110.69;;;10.77;63.65
69772;BME280;57046;45.988;18.664;2023-02-18T02:47:16;101124.06;;;10.95;63.00
69772;BME280;57046;45.988;18.664;2023-02-18T02:50:04;101147.13;;;11.15;63.10
69772;BME280;57046;45.988;18.664;2023-02-18T02:52:32;101167.31;;;11.09;62.83
69772;BME280;57046;45.988;18.664;2023-02-18T02:55:05;101153.78;;;11.09;62.90
69772;BME280;57046;45.988;18.664;2023-02-18T03:00:00;101155.69;;;11.08;63.15
69772;BME280;57046;45.988;18.664;2023-02-18T03:02:40;101161.72;;;11.05;62.83
69772;BME280;57046;45.988;18.664;2023-02-18T03:05:32;101165.31;;;11.01;63.04
69772;BME280;57046;45.988;18.664;2023-02-18T03:11:04;101154.75;;;11.13;62.96
69772;BME280;57046;45.988;18.664;2023-02-18T03:16:43;101166.00;;;11.06;63.18
69772;BME280;57046;45.988;18.664;2023-02-18T03:19:11;101133.22;;;10.72;63.24
69772;BME280;57046;45.988;18.664;2023-02-18T03:22:11;101169.91;;;11.00;62.96
69772;BME280;57046;45.988;18.664;2023-02-18T03:24:46;101133.75;;;10.74;63.22
69772;BME280;57046;45.988;18.664;2023-02-18T03:27:13;101170.81;;;10.96;63.53
69772;BME280;57046;45.988;18.664;2023-02-18T03:29:42;101167.81;;;10.97;63.16
69772;BME280;57046;45.988;18.664;2023-02-18T03:32:12;101182.25;;;10.93;63.53
69772;BME280;57046;45.988;18.664;2023-02-18T03:34:46;101160.13;;;10.91;63.27
69772;BME280;57046;45.988;18.664;2023-02-18T03:37:12;101169.25;;;10.95;63.31
69772;BME280;57046;45.988;18.664;2023-02-18T03:39:41;101178.16;;;10.95;63.05
69772;BME280;57046;45.988;18.664;2023-02-18T03:42:08;101169.06;;;10.91;63.32
69772;BME280;57046;45.988;18.664;2023-02-18T03:44:33;101179.16;;;10.86;63.65
69772;BME280;57046;45.988;18.664;2023-02-18T03:46:59;101178.06;;;10.87;64.01
69772;BME280;57046;45.988;18.664;2023-02-18T03:49:24;101179.53;;;10.93;63.97
69772;BME280;57046;45.988;18.664;2023-02-18T03:51:50;101174.88;;;10.85;64.00
69772;BME280;57046;45.988;18.664;2023-02-18T03:54:15;101173.34;;;10.92;64.17
69772;BME280;57046;45.988;18.664;2023-02-18T03:56:41;101185.28;;;10.91;63.82
69772;BME280;57046;45.988;18.664;2023-02-18T03:59:06;101190.16;;;10.89;64.17
69772;BME280;57046;45.988;18.664;2023-02-18T04:01:31;101182.97;;;10.98;63.76
69772;BME280;57046;45.988;18.664;2023-02-18T04:03:57;101183.56;;;10.95;63.69
69772;BME280;57046;45.988;18.664;2023-02-18T04:06:22;101187.19;;;10.77;64.30
69772;BME280;57046;45.988;18.664;2023-02-18T04:08:48;101194.97;;;10.92;64.21
69772;BME280;57046;45.988;18.664;2023-02-18T04:11:14;101184.38;;;10.82;64.17
69772;BME280;57046;45.988;18.664;2023-02-18T04:13:39;101176.84;;;10.93;63.93
69772;BME280;57046;45.988;18.664;2023-02-18T04:16:05;101176.03;;;10.92;63.93
69772;BME280;57046;45.988;18.664;2023-02-18T04:18:30;101180.06;;;10.95;63.87
69772;BME280;57046;45.988;18.664;2023-02-18T04:20:56;101172.66;;;10.87;64.29
69772;BME280;57046;45.988;18.664;2023-02-18T04:23:21;101175.16;;;10.83;64.65
69772;BME280;57046;45.988;18.664;2023-02-18T04:25:47;101183.97;;;10.89;64.32
69772;BME280;57046;45.988;18.664;2023-02-18T04:28:14;101115.97;;;10.46;64.46
69772;BME280;57046;45.988;18.664;2023-02-18T04:30:40;101167.91;;;10.92;63.96
69772;BME280;57046;45.988;18.664;2023-02-18T04:33:05;101164.09;;;10.71;65.03
69772;BME280;57046;45.988;18.664;2023-02-18T04:35:31;101166.56;;;10.81;65.09
69772;BME280;57046;45.988;18.664;2023-02-18T04:37:56;101163.63;;;10.91;64.20
69772;BME280;57046;45.988;18.664;2023-02-18T04:40:21;101163.50;;;10.96;64.41
69772;BME280;57046;45.988;18.664;2023-02-18T04:42:47;101156.00;;;10.93;64.75
69772;BME280;57046;45.988;18.664;2023-02-18T04:45:12;101152.69;;;10.96;65.04
69772;BME280;57046;45.988;18.664;2023-02-18T04:47:38;101155.75;;;10.81;65.47
69772;BME280;57046;45.988;18.664;2023-02-18T04:50:03;101160.22;;;10.86;64.83
69772;BME280;57046;45.988;18.664;2023-02-18T04:52:29;101157.81;;;10.98;64.66
69772;BME280;57046;45.988;18.664;2023-02-18T04:54:54;101158.19;;;11.05;64.51
69772;BME280;57046;45.988;18.664;2023-02-18T04:57:19;101155.41;;;10.96;65.06
69772;BME280;57046;45.988;18.664;2023-02-18T04:59:45;101139.19;;;10.96;65.11
69772;BME280;57046;45.988;18.664;2023-02-18T05:02:10;101154.00;;;10.99;64.92
69772;BME280;57046;45.988;18.664;2023-02-18T05:04:35;101138.94;;;11.06;64.49
69772;BME280;57046;45.988;18.664;2023-02-18T05:07:01;101153.94;;;11.12;64.39
69772;BME280;57046;45.988;18.664;2023-02-18T05:09:26;101152.84;;;11.13;64.15
69772;BME280;57046;45.988;18.664;2023-02-18T05:11:51;101159.34;;;11.12;64.57
69772;BME280;57046;45.988;18.664;2023-02-18T05:14:17;101171.97;;;11.17;64.07
69772;BME280;57046;45.988;18.664;2023-02-18T05:16:45;101156.09;;;11.02;64.17
69772;BME280;57046;45.988;18.664;2023-02-18T05:19:14;101171.69;;;11.18;64.07
69772;BME280;57046;45.988;18.664;2023-02-18T05:21:40;101179.28;;;11.16;64.09
69772;BME280;57046;45.988;18.664;2023-02-18T05:24:05;101181.41;;;11.06;64.11
69772;BME280;57046;45.988;18.664;2023-02-18T05:26:31;101181.00;;;11.12;63.82
69772;BME280;57046;45.988;18.664;2023-02-18T05:28:56;101177.28;;;11.22;64.14
69772;BME280;57046;45.988;18.664;2023-02-18T05:31:22;101180.59;;;11.19;63.59
69772;BME280;57046;45.988;18.664;2023-02-18T05:33:47;101170.16;;;11.12;63.85
69772;BME280;57046;45.988;18.664;2023-02-18T05:36:13;101176.75;;;11.20;64.00
69772;BME280;57046;45.988;18.664;2023-02-18T05:38:38;101193.50;;;11.22;63.92
69772;BME280;57046;45.988;18.664;2023-02-18T05:41:03;101183.44;;;11.00;64.09
69772;BME280;57046;45.988;18.664;2023-02-18T05:43:29;101201.09;;;11.20;64.17
69772;BME280;57046;45.988;18.664;2023-02-18T05:45:54;101194.91;;;11.19;63.95
69772;BME280;57046;45.988;18.664;2023-02-18T05:48:19;101203.38;;;11.27;63.91
69772;BME280;57046;45.988;18.664;2023-02-18T05:50:45;101213.84;;;11.19;63.97
69772;BME280;57046;45.988;18.664;2023-02-18T05:53:10;101180.50;;;11.10;64.09
69772;BME280;57046;45.988;18.664;2023-02-18T05:55:35;101207.56;;;11.10;64.41
69772;BME280;57046;45.988;18.664;2023-02-18T05:58:01;101219.25;;;11.19;64.38
69772;BME280;57046;45.988;18.664;2023-02-18T06:00:26;101216.75;;;11.09;64.41
69772;BME280;57046;45.988;18.664;2023-02-18T06:02:51;101221.56;;;11.12;64.49
69772;BME280;57046;45.988;18.664;2023-02-18T06:05:17;101221.41;;;11.09;64.64
69772;BME280;57046;45.988;18.664;2023-02-18T06:07:42;101219.09;;;11.02;64.33
69772;BME280;57046;45.988;18.664;2023-02-18T06:10:08;101228.81;;;11.03;64.82
69772;BME280;57046;45.988;18.664;2023-02-18T06:12:33;101237.44;;;11.05;64.57
69772;BME280;57046;45.988;18.664;2023-02-18T06:14:59;101233.94;;;11.05;65.00
69772;BME280;57046;45.988;18.664;2023-02-18T06:17:24;101241.22;;;11.04;64.97
69772;BME280;57046;45.988;18.664;2023-02-18T06:19:49;101245.81;;;11.17;64.58
69772;BME280;57046;45.988;18.664;2023-02-18T06:22:15;101248.41;;;11.22;64.39
69772;BME280;57046;45.988;18.664;2023-02-18T06:24:40;101251.22;;;11.17;64.44
69772;BME280;57046;45.988;18.664;2023-02-18T06:27:06;101255.44;;;11.10;64.91
69772;BME280;57046;45.988;18.664;2023-02-18T06:29:31;101258.47;;;11.08;64.79
69772;BME280;57046;45.988;18.664;2023-02-18T06:31:58;101252.53;;;11.06;64.38
69772;BME280;57046;45.988;18.664;2023-02-18T06:34:23;101242.09;;;11.13;64.11
69772;BME280;57046;45.988;18.664;2023-02-18T06:36:49;101236.41;;;11.15;64.23
69772;BME280;57046;45.988;18.664;2023-02-18T06:39:14;101258.28;;;11.05;64.74
69772;BME280;57046;45.988;18.664;2023-02-18T06:41:40;101266.84;;;11.20;64.64
69772;BME280;57046;45.988;18.664;2023-02-18T06:44:05;101274.56;;;11.13;64.70
69772;BME280;57046;45.988;18.664;2023-02-18T06:46:31;101292.50;;;11.09;64.88
69772;BME280;57046;45.988;18.664;2023-02-18T06:48:56;101298.81;;;11.32;64.29
69772;BME280;57046;45.988;18.664;2023-02-18T06:51:21;101300.38;;;11.33;64.41
69772;BME280;57046;45.988;18.664;2023-02-18T06:53:47;101302.88;;;11.43;64.04
69772;BME280;57046;45.988;18.664;2023-02-18T06:56:12;101302.56;;;11.45;63.89
69772;BME280;57046;45.988;18.664;2023-02-18T06:58:38;101309.47;;;11.51;63.57
69772;BME280;57046;45.988;18.664;2023-02-18T07:01:03;101314.31;;;11.40;63.97
69772;BME280;57046;45.988;18.664;2023-02-18T07:03:29;101313.59;;;11.48;63.75
69772;BME280;57046;45.988;18.664;2023-02-18T07:05:55;101328.97;;;11.39;63.96
69772;BME280;57046;45.988;18.664;2023-02-18T07:08:20;101324.00;;;11.55;63.38
69772;BME280;57046;45.988;18.664;2023-02-18T07:10:46;101325.72;;;11.51;63.61
69772;BME280;57046;45.988;18.664;2023-02-18T07:13:11;101302.63;;;11.53;63.58
69772;BME280;57046;45.988;18.664;2023-02-18T07:15:37;101294.75;;;11.43;63.02
69772;BME280;57046;45.988;18.664;2023-02-18T07:18:02;101289.28;;;11.57;63.21
69772;BME280;57046;45.988;18.664;2023-02-18T07:20:28;101294.03;;;11.51;62.91
69772;BME280;57046;45.988;18.664;2023-02-18T07:22:53;101299.88;;;11.45;63.43
69772;BME280;57046;45.988;18.664;2023-02-18T07:25:19;101310.69;;;11.45;63.38
69772;BME280;57046;45.988;18.664;2023-02-18T07:27:45;101311.47;;;11.59;63.58
69772;BME280;57046;45.988;18.664;2023-02-18T07:30:11;101313.13;;;11.68;62.92
69772;BME280;57046;45.988;18.664;2023-02-18T07:32:37;101313.19;;;11.55;63.13
69772;BME280;57046;45.988;18.664;2023-02-18T07:35:04;101302.53;;;11.72;63.02
69772;BME280;57046;45.988;18.664;2023-02-18T07:37:30;101311.50;;;11.81;62.88
69772;BME280;57046;45.988;18.664;2023-02-18T07:39:55;101309.97;;;11.89;62.16
69772;BME280;57046;45.988;18.664;2023-02-18T07:42:20;101315.59;;;11.92;62.31
69772;BME280;57046;45.988;18.664;2023-02-18T07:44:46;101312.13;;;11.78;62.26
69772;BME280;57046;45.988;18.664;2023-02-18T07:47:13;101312.25;;;11.95;62.10
69772;BME280;57046;45.988;18.664;2023-02-18T07:49:39;101312.41;;;11.90;62.37
69772;BME280;57046;45.988;18.664;2023-02-18T07:52:04;101318.03;;;12.02;62.01
69772;BME280;57046;45.988;18.664;2023-02-18T07:54:30;101319.75;;;11.98;62.24
69772;BME280;57046;45.988;18.664;2023-02-18T07:56:55;101312.00;;;12.05;62.21
69772;BME280;57046;45.988;18.664;2023-02-18T07:59:20;101315.72;;;12.09;62.23
69772;BME280;57046;45.988;18.664;2023-02-18T08:01:46;101320.09;;;11.97;62.94
69772;BME280;57046;45.988;18.664;2023-02-18T08:04:11;101308.59;;;11.78;62.97
69772;BME280;57046;45.988;18.664;2023-02-18T08:06:42;101257.00;;;11.60;63.03
69772;BME280;57046;45.988;18.664;2023-02-18T08:09:08;101315.22;;;11.85;63.00
69772;BME280;57046;45.988;18.664;2023-02-18T08:11:34;101315.88;;;11.91;62.94
69772;BME280;57046;45.988;18.664;2023-02-18T08:14:00;101323.53;;;11.89;63.01
69772;BME280;57046;45.988;18.664;2023-02-18T08:16:26;101313.16;;;11.91;63.27
69772;BME280;57046;45.988;18.664;2023-02-18T08:18:52;101313.53;;;11.76;63.50
69772;BME280;57046;45.988;18.664;2023-02-18T08:21:19;101324.56;;;11.79;63.39
69772;BME280;57046;45.988;18.664;2023-02-18T08:23:45;101314.09;;;12.08;62.97
69772;BME280;57046;45.988;18.664;2023-02-18T08:26:11;101322.38;;;12.03;62.85
69772;BME280;57046;45.988;18.664;2023-02-18T08:28:37;101325.44;;;12.10;62.98
69772;BME280;57046;45.988;18.664;2023-02-18T08:31:02;101330.34;;;12.08;63.12
69772;BME280;57046;45.988;18.664;2023-02-18T08:33:31;101321.41;;;12.30;62.71
69772;BME280;57046;45.988;18.664;2023-02-18T08:35:57;101330.66;;;12.29;62.56
69772;BME280;57046;45.988;18.664;2023-02-18T08:38:23;101321.25;;;12.27;62.49
69772;BME280;57046;45.988;18.664;2023-02-18T08:40:49;101327.28;;;12.23;62.23
69772;BME280;57046;45.988;18.664;2023-02-18T08:43:16;101331.06;;;12.14;62.71
69772;BME280;57046;45.988;18.664;2023-02-18T08:45:42;101330.53;;;12.12;62.76
69772;BME280;57046;45.988;18.664;2023-02-18T08:48:09;101330.44;;;12.17;62.78
69772;BME280;57046;45.988;18.664;2023-02-18T08:50:35;101335.97;;;12.12;62.66
69772;BME280;57046;45.988;18.664;2023-02-18T08:53:01;101314.47;;;12.15;62.66
69772;BME280;57046;45.988;18.664;2023-02-18T08:55:27;101318.06;;;12.24;62.29
69772;BME280;57046;45.988;18.664;2023-02-18T08:57:52;101323.59;;;12.19;62.54
69772;BME280;57046;45.988;18.664;2023-02-18T09:00:18;101327.47;;;12.05;63.21
69772;BME280;57046;45.988;18.664;2023-02-18T09:02:44;101334.38;;;12.42;62.39
69772;BME280;57046;45.988;18.664;2023-02-18T09:05:09;101324.69;;;12.41;62.01
69772;BME280;57046;45.988;18.664;2023-02-18T09:07:36;101340.88;;;12.32;62.34
69772;BME280;57046;45.988;18.664;2023-02-18T09:10:01;101334.56;;;12.45;62.18
69772;BME280;57046;45.988;18.664;2023-02-18T09:12:27;101325.69;;;12.53;62.12
69772;BME280;57046;45.988;18.664;2023-02-18T09:14:52;101319.47;;;12.53;62.15
69772;BME280;57046;45.988;18.664;2023-02-18T09:17:18;101327.69;;;12.70;61.48
69772;BME280;57046;45.988;18.664;2023-02-18T09:19:43;101327.69;;;12.70;61.59
69772;BME280;57046;45.988;18.664;2023-02-18T09:22:09;101318.72;;;12.61;62.17
69772;BME280;57046;45.988;18.664;2023-02-18T09:24:38;101317.81;;;12.74;61.80
69772;BME280;57046;45.988;18.664;2023-02-18T09:27:04;101324.53;;;12.76;61.03
69772;BME280;57046;45.988;18.664;2023-02-18T09:29:36;101310.78;;;12.73;61.39
69772;BME280;57046;45.988;18.664;2023-02-18T09:32:02;101315.31;;;12.86;61.80
69772;BME280;57046;45.988;18.664;2023-02-18T09:34:28;101330.63;;;12.82;62.06
69772;BME280;57046;45.988;18.664;2023-02-18T09:36:53;101318.50;;;12.88;62.20
69772;BME280;57046;45.988;18.664;2023-02-18T09:39:19;101327.31;;;12.94;62.72
69772;BME280;57046;45.988;18.664;2023-02-18T09:41:56;101353.00;;;12.96;62.06
69772;BME280;57046;45.988;18.664;2023-02-18T09:44:46;101322.97;;;12.84;62.58
69772;BME280;57046;45.988;18.664;2023-02-18T09:47:20;101331.72;;;12.81;61.93
69772;BME280;57046;45.988;18.664;2023-02-18T09:49:54;101289.88;;;12.65;62.29
69772;BME280;57046;45.988;18.664;2023-02-18T09:52:27;101327.00;;;12.95;62.48
69772;BME280;57046;45.988;18.664;2023-02-18T09:54:53;101321.59;;;13.04;62.55
69772;BME280;57046;45.988;18.664;2023-02-18T09:57:25;101320.59;;;12.91;62.15
69772;BME280;57046;45.988;18.664;2023-02-18T09:59:59;101324.47;;;12.99;61.89
69772;BME280;57046;45.988;18.664;2023-02-18T10:02:26;101318.81;;;12.87;61.90
69772;BME280;57046;45.988;18.664;2023-02-18T10:04:52;101323.78;;;12.93;61.83
69772;BME280;57046;45.988;18.664;2023-02-18T10:07:27;101316.97;;;12.96;62.59
69772;BME280;57046;45.988;18.664;2023-02-18T10:09:56;101309.38;;;13.15;62.33
69772;BME280;57046;45.988;18.664;2023-02-18T10:12:23;101300.22;;;13.02;62.26
69772;BME280;57046;45.988;18.664;2023-02-18T10:14:58;101316.25;;;13.21;61.97
69772;BME280;57046;45.988;18.664;2023-02-18T10:17:27;101331.88;;;13.15;62.02
69772;BME280;57046;45.988;18.664;2023-02-18T10:19:54;101344.47;;;13.11;62.10
69772;BME280;57046;45.988;18.664;2023-02-18T10:22:22;101333.59;;;13.03;62.06
69772;BME280;57046;45.988;18.664;2023-02-18T10:24:54;101327.44;;;13.19;62.07
69772;BME280;57046;45.988;18.664;2023-02-18T10:27:30;101320.09;;;13.37;62.48
69772;BME280;57046;45.988;18.664;2023-02-18T10:30:29;101311.78;;;13.34;61.38
69772;BME280;57046;45.988;18.664;2023-02-18T10:33:00;101312.25;;;13.27;61.77
69772;BME280;57046;45.988;18.664;2023-02-18T10:44:11;101306.34;;;13.16;62.43
69772;BME280;57046;45.988;18.664;2023-02-18T10:47:05;101307.63;;;13.19;62.27
69772;BME280;57046;45.988;18.664;2023-02-18T10:52:43;101305.31;;;13.04;63.46
69772;BME280;57046;45.988;18.664;2023-02-18T10:55:12;101317.34;;;13.11;63.13
69772;BME280;57046;45.988;18.664;2023-02-18T10:57:50;101282.16;;;12.98;62.86
69772;BME280;57046;45.988;18.664;2023-02-18T11:00:26;101304.19;;;13.05;62.59
69772;BME280;57046;45.988;18.664;2023-02-18T11:03:23;101286.00;;;13.05;62.81
69772;BME280;57046;45.988;18.664;2023-02-18T11:05:54;101260.75;;;12.96;63.09
69772;BME280;57046;45.988;18.664;2023-02-18T11:08:26;101281.13;;;13.24;62.20
69772;BME280;57046;45.988;18.664;2023-02-18T11:10:53;101268.34;;;13.16;62.44
69772;BME280;57046;45.988;18.664;2023-02-18T11:13:27;101236.03;;;13.06;62.30
69772;BME280;57046;45.988;18.664;2023-02-18T11:16:04;101264.22;;;13.36;62.56
69772;BME280;57046;45.988;18.664;2023-02-18T11:18:42;101262.63;;;13.35;62.20
69772;BME280;57046;45.988;18.664;2023-02-18T11:21:23;101276.78;;;13.23;62.71
69772;BME280;57046;45.988;18.664;2023-02-18T11:23:50;101276.03;;;13.32;62.56
69772;BME280;57046;45.988;18.664;2023-02-18T11:26:17;101269.31;;;13.38;62.18
69772;BME280;57046;45.988;18.664;2023-02-18T11:28:47;101272.22;;;13.50;62.07
69772;BME280;57046;45.988;18.664;2023-02-18T11:31:23;101267.25;;;13.52;61.42
69772;BME280;57046;45.988;18.664;2023-02-18T11:33:54;101247.44;;;13.51;61.41
69772;BME280;57046;45.988;18.664;2023-02-18T11:36:33;101260.72;;;13.70;61.36
69772;BME280;57046;45.988;18.664;2023-02-18T11:38:59;101239.28;;;13.68;61.20
69772;BME280;57046;45.988;18.664;2023-02-18T11:41:38;101234.66;;;13.77;60.86
69772;BME280;57046;45.988;18.664;2023-02-18T11:44:07;101212.28;;;13.81;60.79
69772;BME280;57046;45.988;18.664;2023-02-18T11:46:56;101240.34;;;14.10;61.34
69772;BME280;57046;45.988;18.664;2023-02-18T11:49:23;101233.59;;;14.25;60.35
69772;BME280;57046;45.988;18.664;2023-02-18T11:51:50;101234.38;;;14.34;59.81
69772;BME280;57046;45.988;18.664;2023-02-18T11:54:27;101224.75;;;14.37;59.80
69772;BME280;57046;45.988;18.664;2023-02-18T11:57:01;101227.56;;;14.57;59.39
69772;BME280;57046;45.988;18.664;2023-02-18T11:59:29;101194.97;;;14.49;58.90
69772;BME280;57046;45.988;18.664;2023-02-18T12:02:25;101224.31;;;14.64;58.50
69772;BME280;57046;45.988;18.664;2023-02-18T12:05:00;101211.38;;;14.61;58.38
69772;BME280;57046;45.988;18.664;2023-02-18T12:07:48;101194.06;;;14.65;58.01
69772;BME280;57046;45.988;18.664;2023-02-18T12:15:52;101196.75;;;14.95;57.24
69772;BME280;57046;45.988;18.664;2023-02-18T12:27:40;101161.50;;;15.19;56.28
69772;BME280;57046;45.988;18.664;2023-02-18T12:40:55;101140.53;;;15.85;55.07
69772;BME280;57046;45.988;18.664;2023-02-18T12:52:05;101142.94;;;16.11;54.27
69772;BME280;57046;45.988;18.664;2023-02-18T12:57:41;101130.91;;;16.24;54.26
69772;BME280;57046;45.988;18.664;2023-02-18T13:13:07;101115.44;;;16.28;52.77
69772;BME280;57046;45.988;18.664;2023-02-18T13:15:40;101107.63;;;16.14;53.14
69772;BME280;57046;45.988;18.664;2023-02-18T13:18:35;101115.13;;;16.05;53.23
69772;BME280;57046;45.988;18.664;2023-02-18T13:21:11;101099.53;;;15.94;53.30
69772;BME280;57046;45.988;18.664;2023-02-18T13:23:42;101094.09;;;15.94;54.01
69772;BME280;57046;45.988;18.664;2023-02-18T13:26:12;101090.09;;;15.79;53.23
69772;BME280;57046;45.988;18.664;2023-02-18T13:28:59;101054.09;;;15.61;54.25
69772;BME280;57046;45.988;18.664;2023-02-18T13:31:52;101046.72;;;15.74;53.78
69772;BME280;57046;45.988;18.664;2023-02-18T13:34:33;101065.56;;;15.79;54.67
69772;BME280;57046;45.988;18.664;2023-02-18T13:40:26;101038.69;;;15.45;55.96
69772;BME280;57046;45.988;18.664;2023-02-18T13:42:53;101044.56;;;15.35;55.80
69772;BME280;57046;45.988;18.664;2023-02-18T13:45:38;101035.63;;;15.34;56.57
69772;BME280;57046;45.988;18.664;2023-02-18T13:48:21;101032.53;;;15.23;56.79
69772;BME280;57046;45.988;18.664;2023-02-18T13:50:47;101026.84;;;15.28;56.49
69772;BME280;57046;45.988;18.664;2023-02-18T13:53:18;101008.91;;;15.15;57.10
69772;BME280;57046;45.988;18.664;2023-02-18T13:55:56;101000.97;;;15.10;57.05
69772;BME280;57046;45.988;18.664;2023-02-18T13:58:43;101013.91;;;15.25;57.42
69772;BME280;57046;45.988;18.664;2023-02-18T14:01:13;101008.59;;;15.29;57.16
69772;BME280;57046;45.988;18.664;2023-02-18T14:08:39;100990.22;;;15.26;57.03
69772;BME280;57046;45.988;18.664;2023-02-18T14:16:24;100984.97;;;15.09;57.21
69772;BME280;57046;45.988;18.664;2023-02-18T14:18:58;100985.53;;;15.14;56.77
69772;BME280;57046;45.988;18.664;2023-02-18T14:21:50;100979.75;;;15.28;56.60
69772;BME280;57046;45.988;18.664;2023-02-18T14:24:43;100982.22;;;15.09;57.18
69772;BME280;57046;45.988;18.664;2023-02-18T14:27:15;100970.31;;;15.01;56.86
69772;BME280;57046;45.988;18.664;2023-02-18T14:29:42;100976.84;;;14.88;57.50
69772;BME280;57046;45.988;18.664;2023-02-18T14:32:11;100974.16;;;15.00;56.73
69772;BME280;57046;45.988;18.664;2023-02-18T14:34:48;100963.97;;;15.09;56.75
69772;BME280;57046;45.988;18.664;2023-02-18T14:37:41;100961.69;;;14.99;56.87